sensor_id;sensor_type;location;lat;lon;timestamp;P1;durP1;ratioP1;P2;durP2;ratioP2
81544;SDS011;70990;50.618;7.346;2023-07-20T00:02:02;5.10;;;1.70;;
81544;SDS011;70990;50.618;7.346;2023-07-20T00:04:29;6.55;;;1.85;;
81544;SDS011;70990;50.618;7.346;2023-07-20T00:06:56;6.60;;;2.10;;
81544;SDS011;70990;50.618;7.346;2023-07-20T00:09:22;5.47;;;2.10;;
81544;SDS011;70990;50.618;7.346;2023-07-20T00:11:50;8.40;;;2.20;;
81544;SDS011;70990;50.618;7.346;2023-07-20T00:14:17;6.55;;;2.50;;
81544;SDS011;70990;50.618;7.346;2023-07-20T00:16:45;7.13;;;2.53;;
81544;SDS011;70990;50.618;7.346;2023-07-20T00:19:12;6.95;;;2.10;;
81544;SDS011;70990;50.618;7.346;2023-07-20T00:21:39;7.75;;;2.13;;
81544;SDS011;70990;50.618;7.346;2023-07-20T00:24:06;5.57;;;2.25;;
81544;SDS011;70990;50.618;7.346;2023-07-20T00:26:32;6.22;;;2.47;;
81544;SDS011;70990;50.618;7.346;2023-07-20T00:28:59;7.65;;;2.70;;
81544;SDS011;70990;50.618;7.346;2023-07-20T00:31:26;7.45;;;2.50;;
81544;SDS011;70990;50.618;7.346;2023-07-20T00:33:52;11.02;;;3.30;;
81544;SDS011;70990;50.618;7.346;2023-07-20T00:36:19;8.80;;;3.03;;
81544;SDS011;70990;50.618;7.346;2023-07-20T00:38:46;7.63;;;3.28;;
81544;SDS011;70990;50.618;7.346;2023-07-20T00:41:13;11.60;;;3.60;;
81544;SDS011;70990;50.618;7.346;2023-07-20T00:43:39;10.77;;;3.25;;
81544;SDS011;70990;50.618;7.346;2023-07-20T00:46:07;7.10;;;2.90;;
81544;SDS011;70990;50.618;7.346;2023-07-20T00:48:34;9.05;;;2.70;;
81544;SDS011;70990;50.618;7.346;2023-07-20T00:51:01;7.40;;;2.70;;
81544;SDS011;70990;50.618;7.346;2023-07-20T00:53:28;9.32;;;2.78;;
81544;SDS011;70990;50.618;7.346;2023-07-20T00:55:55;7.85;;;2.60;;
81544;SDS011;70990;50.618;7.346;2023-07-20T00:58:22;9.10;;;2.70;;
81544;SDS011;70990;50.618;7.346;2023-07-20T01:00:49;7.78;;;3.03;;
81544;SDS011;70990;50.618;7.346;2023-07-20T01:03:18;8.70;;;3.05;;
81544;SDS011;70990;50.618;7.346;2023-07-20T01:05:48;9.48;;;2.88;;
81544;SDS011;70990;50.618;7.346;2023-07-20T01:08:25;7.40;;;2.85;;
81544;SDS011;70990;50.618;7.346;2023-07-20T01:11:01;8.15;;;2.67;;
81544;SDS011;70990;50.618;7.346;2023-07-20T01:13:36;7.88;;;2.60;;
81544;SDS011;70990;50.618;7.346;2023-07-20T01:16:04;7.50;;;3.10;;
81544;SDS011;70990;50.618;7.346;2023-07-20T01:18:31;7.82;;;2.97;;
81544;SDS011;70990;50.618;7.346;2023-07-20T01:20:59;10.10;;;3.35;;
81544;SDS011;70990;50.618;7.346;2023-07-20T01:23:55;7.88;;;2.78;;
81544;SDS011;70990;50.618;7.346;2023-07-20T01:27:36;7.72;;;2.83;;
81544;SDS011;70990;50.618;7.346;2023-07-20T01:29:55;8.13;;;3.60;;
81544;SDS011;70990;50.618;7.346;2023-07-20T01:32:28;7.13;;;2.53;;
81544;SDS011;70990;50.618;7.346;2023-07-20T01:34:56;5.97;;;2.60;;
81544;SDS011;70990;50.618;7.346;2023-07-20T01:37:25;8.90;;;2.92;;
81544;SDS011;70990;50.618;7.346;2023-07-20T01:39:53;8.05;;;3.17;;
81544;SDS011;70990;50.618;7.346;2023-07-20T01:42:24;7.40;;;2.95;;
81544;SDS011;70990;50.618;7.346;2023-07-20T01:44:51;7.35;;;3.03;;
81544;SDS011;70990;50.618;7.346;2023-07-20T01:47:17;10.77;;;2.80;;
81544;SDS011;70990;50.618;7.346;2023-07-20T01:49:44;6.82;;;2.40;;
81544;SDS011;70990;50.618;7.346;2023-07-20T01:52:11;7.47;;;3.00;;
81544;SDS011;70990;50.618;7.346;2023-07-20T01:54:37;6.88;;;2.67;;
81544;SDS011;70990;50.618;7.346;2023-07-20T01:57:04;5.53;;;2.33;;
81544;SDS011;70990;50.618;7.346;2023-07-20T01:59:31;8.23;;;3.05;;
81544;SDS011;70990;50.618;7.346;2023-07-20T02:01:57;7.53;;;2.50;;
81544;SDS011;70990;50.618;7.346;2023-07-20T02:04:24;6.03;;;2.45;;
81544;SDS011;70990;50.618;7.346;2023-07-20T02:06:51;6.50;;;2.17;;
81544;SDS011;70990;50.618;7.346;2023-07-20T02:09:18;6.57;;;2.10;;
81544;SDS011;70990;50.618;7.346;2023-07-20T02:11:44;6.40;;;1.92;;
81544;SDS011;70990;50.618;7.346;2023-07-20T02:14:11;6.65;;;2.13;;
81544;SDS011;70990;50.618;7.346;2023-07-20T02:16:38;5.85;;;2.45;;
81544;SDS011;70990;50.618;7.346;2023-07-20T02:19:04;5.93;;;2.78;;
81544;SDS011;70990;50.618;7.346;2023-07-20T02:21:31;6.90;;;2.50;;
81544;SDS011;70990;50.618;7.346;2023-07-20T02:23:58;8.82;;;2.88;;
81544;SDS011;70990;50.618;7.346;2023-07-20T02:26:25;6.47;;;2.78;;
81544;SDS011;70990;50.618;7.346;2023-07-20T02:28:51;7.13;;;2.40;;
81544;SDS011;70990;50.618;7.346;2023-07-20T02:31:18;6.65;;;2.83;;
81544;SDS011;70990;50.618;7.346;2023-07-20T02:33:47;6.03;;;2.08;;
81544;SDS011;70990;50.618;7.346;2023-07-20T02:36:14;5.78;;;2.63;;
81544;SDS011;70990;50.618;7.346;2023-07-20T02:38:40;5.65;;;2.15;;
81544;SDS011;70990;50.618;7.346;2023-07-20T02:41:07;11.13;;;2.53;;
81544;SDS011;70990;50.618;7.346;2023-07-20T02:43:33;7.20;;;2.33;;
81544;SDS011;70990;50.618;7.346;2023-07-20T02:46:00;6.72;;;2.20;;
81544;SDS011;70990;50.618;7.346;2023-07-20T02:48:27;5.50;;;2.10;;
81544;SDS011;70990;50.618;7.346;2023-07-20T02:50:53;6.03;;;1.98;;
81544;SDS011;70990;50.618;7.346;2023-07-20T02:53:20;6.00;;;2.10;;
81544;SDS011;70990;50.618;7.346;2023-07-20T02:55:46;6.50;;;2.17;;
81544;SDS011;70990;50.618;7.346;2023-07-20T02:58:13;5.32;;;2.40;;
81544;SDS011;70990;50.618;7.346;2023-07-20T03:00:42;9.15;;;2.25;;
81544;SDS011;70990;50.618;7.346;2023-07-20T03:03:09;9.10;;;2.58;;
81544;SDS011;70990;50.618;7.346;2023-07-20T03:05:36;7.60;;;2.42;;
81544;SDS011;70990;50.618;7.346;2023-07-20T03:08:02;6.78;;;2.33;;
81544;SDS011;70990;50.618;7.346;2023-07-20T03:10:30;6.85;;;2.13;;
81544;SDS011;70990;50.618;7.346;2023-07-20T03:12:56;4.95;;;2.15;;
81544;SDS011;70990;50.618;7.346;2023-07-20T03:15:23;7.03;;;2.55;;
81544;SDS011;70990;50.618;7.346;2023-07-20T03:17:50;7.82;;;2.67;;
81544;SDS011;70990;50.618;7.346;2023-07-20T03:20:17;7.85;;;3.03;;
81544;SDS011;70990;50.618;7.346;2023-07-20T03:22:43;6.50;;;2.42;;
81544;SDS011;70990;50.618;7.346;2023-07-20T03:25:10;5.45;;;2.15;;
81544;SDS011;70990;50.618;7.346;2023-07-20T03:27:37;5.72;;;2.47;;
81544;SDS011;70990;50.618;7.346;2023-07-20T03:30:04;5.13;;;2.35;;
81544;SDS011;70990;50.618;7.346;2023-07-20T03:32:32;7.00;;;2.67;;
81544;SDS011;70990;50.618;7.346;2023-07-20T03:35:01;9.05;;;2.72;;
81544;SDS011;70990;50.618;7.346;2023-07-20T03:37:28;6.80;;;2.80;;
81544;SDS011;70990;50.618;7.346;2023-07-20T03:39:54;6.72;;;2.47;;
81544;SDS011;70990;50.618;7.346;2023-07-20T03:42:21;7.30;;;2.28;;
81544;SDS011;70990;50.618;7.346;2023-07-20T03:44:48;8.02;;;2.50;;
81544;SDS011;70990;50.618;7.346;2023-07-20T03:47:14;8.50;;;2.67;;
81544;SDS011;70990;50.618;7.346;2023-07-20T03:49:41;5.65;;;2.45;;
81544;SDS011;70990;50.618;7.346;2023-07-20T03:52:07;9.13;;;2.33;;
81544;SDS011;70990;50.618;7.346;2023-07-20T03:54:34;7.43;;;2.45;;
81544;SDS011;70990;50.618;7.346;2023-07-20T03:57:00;5.95;;;2.47;;
81544;SDS011;70990;50.618;7.346;2023-07-20T03:59:27;8.57;;;2.55;;
81544;SDS011;70990;50.618;7.346;2023-07-20T04:01:54;4.80;;;2.05;;
81544;SDS011;70990;50.618;7.346;2023-07-20T04:04:20;5.85;;;2.38;;
81544;SDS011;70990;50.618;7.346;2023-07-20T04:06:47;5.10;;;2.38;;
81544;SDS011;70990;50.618;7.346;2023-07-20T04:09:14;5.07;;;1.98;;
81544;SDS011;70990;50.618;7.346;2023-07-20T04:11:41;10.15;;;2.60;;
81544;SDS011;70990;50.618;7.346;2023-07-20T04:14:07;6.30;;;2.40;;
81544;SDS011;70990;50.618;7.346;2023-07-20T04:16:34;5.95;;;2.40;;
81544;SDS011;70990;50.618;7.346;2023-07-20T04:19:01;7.25;;;2.72;;
81544;SDS011;70990;50.618;7.346;2023-07-20T04:21:28;7.75;;;2.42;;
81544;SDS011;70990;50.618;7.346;2023-07-20T04:23:55;6.70;;;2.45;;
81544;SDS011;70990;50.618;7.346;2023-07-20T04:26:22;5.65;;;2.30;;
81544;SDS011;70990;50.618;7.346;2023-07-20T04:28:49;6.72;;;2.50;;
81544;SDS011;70990;50.618;7.346;2023-07-20T04:31:26;5.15;;;2.10;;
81544;SDS011;70990;50.618;7.346;2023-07-20T04:33:52;7.03;;;2.90;;
81544;SDS011;70990;50.618;7.346;2023-07-20T04:36:19;7.18;;;2.50;;
81544;SDS011;70990;50.618;7.346;2023-07-20T04:38:46;6.32;;;2.53;;
81544;SDS011;70990;50.618;7.346;2023-07-20T04:43:46;6.35;;;2.60;;
81544;SDS011;70990;50.618;7.346;2023-07-20T04:46:18;7.35;;;2.30;;
81544;SDS011;70990;50.618;7.346;2023-07-20T04:48:46;7.20;;;2.53;;
81544;SDS011;70990;50.618;7.346;2023-07-20T04:51:13;9.18;;;2.70;;
81544;SDS011;70990;50.618;7.346;2023-07-20T04:53:40;8.88;;;2.88;;
81544;SDS011;70990;50.618;7.346;2023-07-20T04:56:08;6.30;;;1.88;;
81544;SDS011;70990;50.618;7.346;2023-07-20T04:58:35;7.20;;;2.45;;
81544;SDS011;70990;50.618;7.346;2023-07-20T05:01:01;9.82;;;2.90;;
81544;SDS011;70990;50.618;7.346;2023-07-20T05:03:30;10.70;;;3.47;;
81544;SDS011;70990;50.618;7.346;2023-07-20T05:05:57;7.80;;;2.53;;
81544;SDS011;70990;50.618;7.346;2023-07-20T05:08:24;7.28;;;2.53;;
81544;SDS011;70990;50.618;7.346;2023-07-20T05:10:51;8.55;;;3.00;;
81544;SDS011;70990;50.618;7.346;2023-07-20T05:13:19;11.73;;;2.22;;
81544;SDS011;70990;50.618;7.346;2023-07-20T05:15:45;6.80;;;2.60;;
81544;SDS011;70990;50.618;7.346;2023-07-20T05:18:15;5.40;;;2.33;;
81544;SDS011;70990;50.618;7.346;2023-07-20T05:20:42;6.80;;;2.58;;
81544;SDS011;70990;50.618;7.346;2023-07-20T05:23:09;7.53;;;2.40;;
81544;SDS011;70990;50.618;7.346;2023-07-20T05:25:35;8.43;;;2.33;;
81544;SDS011;70990;50.618;7.346;2023-07-20T05:28:03;8.43;;;2.35;;
81544;SDS011;70990;50.618;7.346;2023-07-20T05:30:30;8.02;;;2.67;;
81544;SDS011;70990;50.618;7.346;2023-07-20T05:32:57;8.82;;;2.58;;
81544;SDS011;70990;50.618;7.346;2023-07-20T05:35:23;8.70;;;2.92;;
81544;SDS011;70990;50.618;7.346;2023-07-20T05:37:50;9.23;;;3.00;;
81544;SDS011;70990;50.618;7.346;2023-07-20T05:40:17;9.15;;;3.17;;
81544;SDS011;70990;50.618;7.346;2023-07-20T05:42:43;6.47;;;3.05;;
81544;SDS011;70990;50.618;7.346;2023-07-20T05:45:10;11.18;;;3.15;;
81544;SDS011;70990;50.618;7.346;2023-07-20T05:47:37;6.90;;;2.67;;
81544;SDS011;70990;50.618;7.346;2023-07-20T05:50:04;9.23;;;3.40;;
81544;SDS011;70990;50.618;7.346;2023-07-20T05:52:31;9.98;;;3.20;;
81544;SDS011;70990;50.618;7.346;2023-07-20T05:54:58;11.57;;;3.88;;
81544;SDS011;70990;50.618;7.346;2023-07-20T05:57:25;11.23;;;3.65;;
81544;SDS011;70990;50.618;7.346;2023-07-20T05:59:51;8.45;;;2.95;;
81544;SDS011;70990;50.618;7.346;2023-07-20T06:02:19;12.57;;;4.03;;
81544;SDS011;70990;50.618;7.346;2023-07-20T06:08:33;13.60;;;4.05;;
81544;SDS011;70990;50.618;7.346;2023-07-20T06:11:00;11.15;;;4.03;;
81544;SDS011;70990;50.618;7.346;2023-07-20T06:13:27;17.65;;;4.95;;
81544;SDS011;70990;50.618;7.346;2023-07-20T06:15:54;10.98;;;4.75;;
81544;SDS011;70990;50.618;7.346;2023-07-20T06:18:22;15.68;;;5.30;;
81544;SDS011;70990;50.618;7.346;2023-07-20T06:20:50;14.95;;;4.90;;
81544;SDS011;70990;50.618;7.346;2023-07-20T06:23:19;12.82;;;5.03;;
81544;SDS011;70990;50.618;7.346;2023-07-20T06:25:46;14.27;;;5.38;;
81544;SDS011;70990;50.618;7.346;2023-07-20T06:28:13;11.60;;;4.85;;
81544;SDS011;70990;50.618;7.346;2023-07-20T06:30:40;12.10;;;5.57;;
81544;SDS011;70990;50.618;7.346;2023-07-20T06:33:07;9.57;;;4.65;;
81544;SDS011;70990;50.618;7.346;2023-07-20T06:35:34;9.43;;;4.32;;
81544;SDS011;70990;50.618;7.346;2023-07-20T06:38:01;13.43;;;5.13;;
81544;SDS011;70990;50.618;7.346;2023-07-20T06:40:31;11.00;;;4.25;;
81544;SDS011;70990;50.618;7.346;2023-07-20T06:42:58;10.32;;;4.45;;
81544;SDS011;70990;50.618;7.346;2023-07-20T06:45:28;10.57;;;4.88;;
81544;SDS011;70990;50.618;7.346;2023-07-20T06:47:55;14.75;;;5.05;;
81544;SDS011;70990;50.618;7.346;2023-07-20T06:50:21;11.38;;;4.28;;
81544;SDS011;70990;50.618;7.346;2023-07-20T06:52:52;11.65;;;4.30;;
81544;SDS011;70990;50.618;7.346;2023-07-20T06:55:20;14.63;;;4.72;;
81544;SDS011;70990;50.618;7.346;2023-07-20T06:57:49;10.48;;;4.25;;
81544;SDS011;70990;50.618;7.346;2023-07-20T07:00:16;9.65;;;4.50;;
81544;SDS011;70990;50.618;7.346;2023-07-20T07:02:43;7.85;;;4.13;;
81544;SDS011;70990;50.618;7.346;2023-07-20T07:05:13;12.43;;;4.18;;
81544;SDS011;70990;50.618;7.346;2023-07-20T07:07:42;11.15;;;4.40;;
81544;SDS011;70990;50.618;7.346;2023-07-20T07:10:09;8.35;;;3.85;;
81544;SDS011;70990;50.618;7.346;2023-07-20T07:12:35;8.65;;;4.10;;
81544;SDS011;70990;50.618;7.346;2023-07-20T07:15:03;9.10;;;4.43;;
81544;SDS011;70990;50.618;7.346;2023-07-20T07:17:30;9.60;;;4.00;;
81544;SDS011;70990;50.618;7.346;2023-07-20T07:20:00;10.75;;;5.35;;
81544;SDS011;70990;50.618;7.346;2023-07-20T07:22:26;7.35;;;3.67;;
81544;SDS011;70990;50.618;7.346;2023-07-20T07:24:53;6.95;;;3.47;;
81544;SDS011;70990;50.618;7.346;2023-07-20T07:27:20;8.55;;;3.33;;
81544;SDS011;70990;50.618;7.346;2023-07-20T07:29:46;7.32;;;3.80;;
81544;SDS011;70990;50.618;7.346;2023-07-20T07:32:13;8.38;;;3.88;;
81544;SDS011;70990;50.618;7.346;2023-07-20T07:34:41;11.80;;;4.45;;
81544;SDS011;70990;50.618;7.346;2023-07-20T07:37:07;8.32;;;3.75;;
81544;SDS011;70990;50.618;7.346;2023-07-20T07:39:34;7.63;;;4.07;;
81544;SDS011;70990;50.618;7.346;2023-07-20T07:42:01;11.55;;;4.00;;
81544;SDS011;70990;50.618;7.346;2023-07-20T07:44:28;8.38;;;4.03;;
81544;SDS011;70990;50.618;7.346;2023-07-20T07:46:54;10.63;;;4.35;;
81544;SDS011;70990;50.618;7.346;2023-07-20T07:49:21;13.15;;;4.70;;
81544;SDS011;70990;50.618;7.346;2023-07-20T07:51:47;9.27;;;4.80;;
81544;SDS011;70990;50.618;7.346;2023-07-20T07:54:14;8.48;;;4.25;;
81544;SDS011;70990;50.618;7.346;2023-07-20T07:56:41;7.03;;;3.42;;
81544;SDS011;70990;50.618;7.346;2023-07-20T07:59:07;8.43;;;3.83;;
81544;SDS011;70990;50.618;7.346;2023-07-20T08:01:34;8.43;;;3.72;;
81544;SDS011;70990;50.618;7.346;2023-07-20T08:04:01;7.53;;;3.60;;
81544;SDS011;70990;50.618;7.346;2023-07-20T08:06:28;10.75;;;3.63;;
81544;SDS011;70990;50.618;7.346;2023-07-20T08:08:55;7.43;;;3.80;;
81544;SDS011;70990;50.618;7.346;2023-07-20T08:11:21;7.80;;;3.53;;
81544;SDS011;70990;50.618;7.346;2023-07-20T08:13:48;7.93;;;3.53;;
81544;SDS011;70990;50.618;7.346;2023-07-20T08:16:14;8.45;;;2.97;;
81544;SDS011;70990;50.618;7.346;2023-07-20T08:18:41;7.90;;;3.58;;
81544;SDS011;70990;50.618;7.346;2023-07-20T08:21:08;6.88;;;2.80;;
81544;SDS011;70990;50.618;7.346;2023-07-20T08:23:36;6.72;;;3.22;;
81544;SDS011;70990;50.618;7.346;2023-07-20T08:26:08;12.52;;;4.38;;
81544;SDS011;70990;50.618;7.346;2023-07-20T08:28:35;9.30;;;4.00;;
81544;SDS011;70990;50.618;7.346;2023-07-20T08:31:05;10.55;;;3.38;;
81544;SDS011;70990;50.618;7.346;2023-07-20T08:33:32;8.93;;;3.63;;
81544;SDS011;70990;50.618;7.346;2023-07-20T08:36:00;8.63;;;4.05;;
81544;SDS011;70990;50.618;7.346;2023-07-20T08:38:27;7.60;;;3.50;;
81544;SDS011;70990;50.618;7.346;2023-07-20T08:40:54;9.10;;;3.80;;
81544;SDS011;70990;50.618;7.346;2023-07-20T08:43:20;8.48;;;3.50;;
81544;SDS011;70990;50.618;7.346;2023-07-20T08:45:49;10.07;;;3.17;;
81544;SDS011;70990;50.618;7.346;2023-07-20T08:48:18;6.40;;;3.15;;
81544;SDS011;70990;50.618;7.346;2023-07-20T08:50:45;6.80;;;3.50;;
81544;SDS011;70990;50.618;7.346;2023-07-20T08:53:15;7.65;;;3.42;;
81544;SDS011;70990;50.618;7.346;2023-07-20T08:55:46;11.05;;;3.50;;
81544;SDS011;70990;50.618;7.346;2023-07-20T08:58:18;10.32;;;3.22;;
81544;SDS011;70990;50.618;7.346;2023-07-20T09:00:45;6.82;;;3.17;;
81544;SDS011;70990;50.618;7.346;2023-07-20T09:03:13;4.78;;;2.10;;
81544;SDS011;70990;50.618;7.346;2023-07-20T09:05:41;8.43;;;2.90;;
81544;SDS011;70990;50.618;7.346;2023-07-20T09:08:07;5.25;;;2.05;;
81544;SDS011;70990;50.618;7.346;2023-07-20T09:10:34;5.53;;;2.00;;
81544;SDS011;70990;50.618;7.346;2023-07-20T09:13:01;4.97;;;2.05;;
81544;SDS011;70990;50.618;7.346;2023-07-20T09:15:28;4.55;;;1.80;;
81544;SDS011;70990;50.618;7.346;2023-07-20T09:17:55;5.88;;;2.03;;
81544;SDS011;70990;50.618;7.346;2023-07-20T09:20:22;5.55;;;1.90;;
81544;SDS011;70990;50.618;7.346;2023-07-20T09:22:50;4.38;;;1.95;;
81544;SDS011;70990;50.618;7.346;2023-07-20T09:25:17;5.65;;;2.00;;
81544;SDS011;70990;50.618;7.346;2023-07-20T09:27:47;4.75;;;1.67;;
81544;SDS011;70990;50.618;7.346;2023-07-20T09:30:18;5.32;;;1.90;;
81544;SDS011;70990;50.618;7.346;2023-07-20T09:32:45;6.30;;;1.85;;
81544;SDS011;70990;50.618;7.346;2023-07-20T09:35:17;5.45;;;1.98;;
81544;SDS011;70990;50.618;7.346;2023-07-20T09:37:53;4.10;;;2.03;;
81544;SDS011;70990;50.618;7.346;2023-07-20T09:40:29;7.80;;;2.25;;
81544;SDS011;70990;50.618;7.346;2023-07-20T09:42:59;7.05;;;2.78;;
81544;SDS011;70990;50.618;7.346;2023-07-20T09:45:29;5.10;;;1.85;;
81544;SDS011;70990;50.618;7.346;2023-07-20T09:48:05;4.63;;;1.80;;
81544;SDS011;70990;50.618;7.346;2023-07-20T09:50:39;8.27;;;2.30;;
81544;SDS011;70990;50.618;7.346;2023-07-20T09:53:07;7.13;;;2.58;;
81544;SDS011;70990;50.618;7.346;2023-07-20T09:55:39;5.03;;;2.00;;
81544;SDS011;70990;50.618;7.346;2023-07-20T09:58:07;3.25;;;1.77;;
81544;SDS011;70990;50.618;7.346;2023-07-20T10:00:39;5.60;;;1.70;;
81544;SDS011;70990;50.618;7.346;2023-07-20T10:03:09;5.20;;;1.80;;
81544;SDS011;70990;50.618;7.346;2023-07-20T10:05:39;5.10;;;1.60;;
81544;SDS011;70990;50.618;7.346;2023-07-20T10:08:11;4.78;;;1.42;;
81544;SDS011;70990;50.618;7.346;2023-07-20T10:10:42;5.63;;;1.90;;
81544;SDS011;70990;50.618;7.346;2023-07-20T10:13:13;4.32;;;1.70;;
81544;SDS011;70990;50.618;7.346;2023-07-20T10:15:49;5.68;;;1.88;;
81544;SDS011;70990;50.618;7.346;2023-07-20T10:20:54;3.17;;;1.60;;
81544;SDS011;70990;50.618;7.346;2023-07-20T10:23:25;3.97;;;1.75;;
81544;SDS011;70990;50.618;7.346;2023-07-20T10:25:55;4.97;;;1.83;;
81544;SDS011;70990;50.618;7.346;2023-07-20T10:28:23;5.50;;;1.65;;
81544;SDS011;70990;50.618;7.346;2023-07-20T10:30:50;3.25;;;1.45;;
81544;SDS011;70990;50.618;7.346;2023-07-20T10:33:17;4.07;;;1.50;;
81544;SDS011;70990;50.618;7.346;2023-07-20T10:35:55;4.88;;;1.92;;
81544;SDS011;70990;50.618;7.346;2023-07-20T10:43:49;2.97;;;1.52;;
81544;SDS011;70990;50.618;7.346;2023-07-20T10:46:16;4.18;;;1.83;;
81544;SDS011;70990;50.618;7.346;2023-07-20T10:49:06;2.92;;;1.20;;
81544;SDS011;70990;50.618;7.346;2023-07-20T10:56:44;2.53;;;1.02;;
81544;SDS011;70990;50.618;7.346;2023-07-20T11:01:54;3.13;;;1.42;;
81544;SDS011;70990;50.618;7.346;2023-07-20T11:04:37;1.92;;;1.20;;
81544;SDS011;70990;50.618;7.346;2023-07-20T11:07:04;4.30;;;1.20;;
81544;SDS011;70990;50.618;7.346;2023-07-20T11:09:35;6.15;;;1.40;;
81544;SDS011;70990;50.618;7.346;2023-07-20T11:14:53;7.78;;;1.60;;
81544;SDS011;70990;50.618;7.346;2023-07-20T11:17:30;4.13;;;1.35;;
81544;SDS011;70990;50.618;7.346;2023-07-20T11:20:01;3.10;;;1.20;;
81544;SDS011;70990;50.618;7.346;2023-07-20T11:22:31;3.00;;;1.40;;
81544;SDS011;70990;50.618;7.346;2023-07-20T11:24:58;4.53;;;1.50;;
81544;SDS011;70990;50.618;7.346;2023-07-20T11:27:25;4.72;;;1.48;;
81544;SDS011;70990;50.618;7.346;2023-07-20T11:29:51;4.80;;;1.33;;
81544;SDS011;70990;50.618;7.346;2023-07-20T11:32:21;2.30;;;1.10;;
81544;SDS011;70990;50.618;7.346;2023-07-20T11:34:48;3.83;;;1.30;;
81544;SDS011;70990;50.618;7.346;2023-07-20T11:37:16;3.75;;;1.30;;
81544;SDS011;70990;50.618;7.346;2023-07-20T11:39:43;3.67;;;1.33;;
81544;SDS011;70990;50.618;7.346;2023-07-20T11:42:13;5.53;;;1.55;;
81544;SDS011;70990;50.618;7.346;2023-07-20T11:45:01;3.28;;;1.38;;
81544;SDS011;70990;50.618;7.346;2023-07-20T11:47:29;3.17;;;1.45;;
81544;SDS011;70990;50.618;7.346;2023-07-20T11:49:56;3.55;;;1.33;;
81544;SDS011;70990;50.618;7.346;2023-07-20T11:52:29;1.50;;;1.00;;
81544;SDS011;70990;50.618;7.346;2023-07-20T11:54:56;2.95;;;1.10;;
81544;SDS011;70990;50.618;7.346;2023-07-20T11:57:24;2.58;;;1.27;;
81544;SDS011;70990;50.618;7.346;2023-07-20T11:59:54;3.78;;;1.30;;
81544;SDS011;70990;50.618;7.346;2023-07-20T12:02:21;4.30;;;1.30;;
81544;SDS011;70990;50.618;7.346;2023-07-20T12:04:48;5.38;;;1.38;;
81544;SDS011;70990;50.618;7.346;2023-07-20T12:07:15;4.82;;;1.40;;
81544;SDS011;70990;50.618;7.346;2023-07-20T12:09:41;3.97;;;1.23;;
81544;SDS011;70990;50.618;7.346;2023-07-20T12:12:18;3.75;;;1.58;;
81544;SDS011;70990;50.618;7.346;2023-07-20T12:14:45;5.35;;;1.40;;
81544;SDS011;70990;50.618;7.346;2023-07-20T12:17:11;4.03;;;1.35;;
81544;SDS011;70990;50.618;7.346;2023-07-20T12:19:39;4.10;;;1.70;;
81544;SDS011;70990;50.618;7.346;2023-07-20T12:22:06;3.72;;;1.30;;
81544;SDS011;70990;50.618;7.346;2023-07-20T12:24:33;3.83;;;1.20;;
81544;SDS011;70990;50.618;7.346;2023-07-20T12:26:59;3.45;;;1.30;;
81544;SDS011;70990;50.618;7.346;2023-07-20T12:29:26;3.25;;;1.10;;
81544;SDS011;70990;50.618;7.346;2023-07-20T12:31:53;2.28;;;1.10;;
81544;SDS011;70990;50.618;7.346;2023-07-20T12:34:20;3.90;;;1.20;;
81544;SDS011;70990;50.618;7.346;2023-07-20T12:36:46;2.25;;;1.17;;
81544;SDS011;70990;50.618;7.346;2023-07-20T12:39:13;2.58;;;1.17;;
81544;SDS011;70990;50.618;7.346;2023-07-20T12:41:39;4.28;;;1.08;;
81544;SDS011;70990;50.618;7.346;2023-07-20T12:44:06;5.78;;;1.30;;
81544;SDS011;70990;50.618;7.346;2023-07-20T12:46:32;4.38;;;1.30;;
81544;SDS011;70990;50.618;7.346;2023-07-20T12:48:59;2.72;;;1.27;;
81544;SDS011;70990;50.618;7.346;2023-07-20T12:51:26;4.25;;;1.77;;
81544;SDS011;70990;50.618;7.346;2023-07-20T12:53:52;3.15;;;1.42;;
81544;SDS011;70990;50.618;7.346;2023-07-20T12:56:19;2.95;;;1.20;;
81544;SDS011;70990;50.618;7.346;2023-07-20T12:58:48;2.63;;;1.23;;
81544;SDS011;70990;50.618;7.346;2023-07-20T13:01:15;3.97;;;1.33;;
81544;SDS011;70990;50.618;7.346;2023-07-20T13:03:42;3.05;;;1.30;;
81544;SDS011;70990;50.618;7.346;2023-07-20T13:06:11;3.45;;;1.20;;
81544;SDS011;70990;50.618;7.346;2023-07-20T13:08:41;3.25;;;1.30;;
81544;SDS011;70990;50.618;7.346;2023-07-20T13:11:07;3.85;;;1.40;;
81544;SDS011;70990;50.618;7.346;2023-07-20T13:13:34;4.47;;;1.40;;
81544;SDS011;70990;50.618;7.346;2023-07-20T13:16:02;4.25;;;1.50;;
81544;SDS011;70990;50.618;7.346;2023-07-20T13:18:29;2.65;;;1.10;;
81544;SDS011;70990;50.618;7.346;2023-07-20T13:20:56;2.35;;;1.13;;
81544;SDS011;70990;50.618;7.346;2023-07-20T13:23:28;2.83;;;1.33;;
81544;SDS011;70990;50.618;7.346;2023-07-20T13:25:54;4.32;;;1.30;;
81544;SDS011;70990;50.618;7.346;2023-07-20T13:28:21;3.72;;;1.17;;
81544;SDS011;70990;50.618;7.346;2023-07-20T13:30:47;4.15;;;1.20;;
81544;SDS011;70990;50.618;7.346;2023-07-20T13:33:14;4.93;;;1.35;;
81544;SDS011;70990;50.618;7.346;2023-07-20T13:35:44;3.65;;;1.38;;
81544;SDS011;70990;50.618;7.346;2023-07-20T13:38:13;2.80;;;1.17;;
81544;SDS011;70990;50.618;7.346;2023-07-20T13:40:40;3.15;;;1.20;;
81544;SDS011;70990;50.618;7.346;2023-07-20T13:43:07;2.85;;;1.30;;
81544;SDS011;70990;50.618;7.346;2023-07-20T13:45:33;3.17;;;1.50;;
81544;SDS011;70990;50.618;7.346;2023-07-20T13:48:00;3.55;;;1.30;;
81544;SDS011;70990;50.618;7.346;2023-07-20T13:50:31;3.10;;;1.35;;
81544;SDS011;70990;50.618;7.346;2023-07-20T13:53:08;4.05;;;1.30;;
81544;SDS011;70990;50.618;7.346;2023-07-20T13:55:37;3.40;;;1.23;;
81544;SDS011;70990;50.618;7.346;2023-07-20T13:58:07;4.22;;;1.25;;
81544;SDS011;70990;50.618;7.346;2023-07-20T14:00:33;4.15;;;1.50;;
81544;SDS011;70990;50.618;7.346;2023-07-20T14:03:00;2.90;;;1.38;;
81544;SDS011;70990;50.618;7.346;2023-07-20T14:05:30;4.72;;;1.23;;
81544;SDS011;70990;50.618;7.346;2023-07-20T14:07:59;3.00;;;1.20;;
81544;SDS011;70990;50.618;7.346;2023-07-20T14:10:26;5.43;;;1.30;;
81544;SDS011;70990;50.618;7.346;2023-07-20T14:12:53;3.50;;;1.08;;
81544;SDS011;70990;50.618;7.346;2023-07-20T14:15:19;3.42;;;1.25;;
81544;SDS011;70990;50.618;7.346;2023-07-20T14:17:46;4.78;;;1.13;;
81544;SDS011;70990;50.618;7.346;2023-07-20T14:20:12;4.00;;;1.30;;
81544;SDS011;70990;50.618;7.346;2023-07-20T14:22:42;2.95;;;1.23;;
81544;SDS011;70990;50.618;7.346;2023-07-20T14:25:08;2.75;;;1.00;;
81544;SDS011;70990;50.618;7.346;2023-07-20T14:27:35;3.92;;;1.20;;
81544;SDS011;70990;50.618;7.346;2023-07-20T14:30:03;3.08;;;1.33;;
81544;SDS011;70990;50.618;7.346;2023-07-20T14:32:31;3.38;;;1.13;;
81544;SDS011;70990;50.618;7.346;2023-07-20T14:34:58;4.78;;;1.20;;
81544;SDS011;70990;50.618;7.346;2023-07-20T14:37:25;2.80;;;1.10;;
81544;SDS011;70990;50.618;7.346;2023-07-20T14:39:54;3.60;;;1.10;;
81544;SDS011;70990;50.618;7.346;2023-07-20T14:42:21;2.55;;;1.15;;
81544;SDS011;70990;50.618;7.346;2023-07-20T14:44:48;6.65;;;1.63;;
81544;SDS011;70990;50.618;7.346;2023-07-20T14:47:14;4.38;;;1.42;;
81544;SDS011;70990;50.618;7.346;2023-07-20T14:49:41;4.00;;;1.15;;
81544;SDS011;70990;50.618;7.346;2023-07-20T14:52:08;4.43;;;1.20;;
81544;SDS011;70990;50.618;7.346;2023-07-20T14:57:05;3.38;;;1.20;;
81544;SDS011;70990;50.618;7.346;2023-07-20T14:59:31;3.15;;;1.20;;
81544;SDS011;70990;50.618;7.346;2023-07-20T15:01:58;2.92;;;1.10;;
81544;SDS011;70990;50.618;7.346;2023-07-20T15:04:25;3.80;;;1.63;;
81544;SDS011;70990;50.618;7.346;2023-07-20T15:06:51;3.15;;;1.23;;
81544;SDS011;70990;50.618;7.346;2023-07-20T15:09:18;1.38;;;1.00;;
81544;SDS011;70990;50.618;7.346;2023-07-20T15:11:44;2.78;;;1.42;;
81544;SDS011;70990;50.618;7.346;2023-07-20T15:14:11;3.17;;;1.10;;
81544;SDS011;70990;50.618;7.346;2023-07-20T15:16:38;1.73;;;1.05;;
81544;SDS011;70990;50.618;7.346;2023-07-20T15:19:04;2.50;;;1.20;;